Time;durP1;ratioP1;P1;durP2;ratioP2;P2;SDS_P1;SDS_P2;PMS_P1;PMS_P2;Temp;Humidity;BMP_temperature;BMP_pressure;BME280_temperature;BME280_humidity;BME280_pressure;Samples;Min_cycle;Max_cycle;Signal;HPM_P1;HPM_P2
2022/12/18 00:02:00;;;;;;;17.07;13.23;;;14.40;74.80;;;;;;4179938;28;20254;-77
2022/12/18 00:04:08;;;;;;;16.47;13.33;;;14.40;74.40;;;;;;4172995;28;20217;-77
2022/12/18 00:06:11;;;;;;;15.33;13.17;;;14.40;74.60;;;;;;4175143;28;20272;-77
2022/12/18 00:08:13;;;;;;;16.57;13.87;;;14.40;74.80;;;;;;4179723;28;20262;-77
2022/12/18 00:10:16;;;;;;;14.47;12.93;;;14.40;74.70;;;;;;4170188;28;20311;-77
2022/12/18 00:12:18;;;;;;;15.73;13.67;;;14.40;74.70;;;;;;4171339;28;20278;-77
2022/12/18 00:14:20;;;;;;;15.13;13.47;;;14.40;74.60;;;;;;4179574;28;20219;-77
2022/12/18 00:16:25;;;;;;;16.47;13.57;;;14.30;74.80;;;;;;4174146;28;20224;-77
2022/12/18 00:18:27;;;;;;;16.10;13.20;;;14.40;74.70;;;;;;4180124;28;20242;-77
2022/12/18 00:20:31;;;;;;;16.50;13.97;;;14.40;74.30;;;;;;4180083;28;20637;-76
2022/12/18 00:22:33;;;;;;;15.33;12.23;;;14.30;74.50;;;;;;4174521;28;20614;-77
2022/12/18 00:24:36;;;;;;;16.77;13.20;;;14.40;74.40;;;;;;4179940;28;20229;-77
2022/12/18 00:26:39;;;;;;;15.40;13.10;;;14.40;74.20;;;;;;4176787;28;20208;-77
2022/12/18 00:28:42;;;;;;;15.00;12.57;;;14.30;74.40;;;;;;4177427;28;20219;-77
2022/12/18 00:30:44;;;;;;;15.17;13.50;;;14.30;74.30;;;;;;4179983;28;20212;-77
2022/12/18 00:32:46;;;;;;;17.03;13.73;;;14.30;74.20;;;;;;4179144;28;20278;-77
2022/12/18 00:34:49;;;;;;;15.80;13.43;;;14.30;74.30;;;;;;4174363;28;20220;-77
2022/12/18 00:36:52;;;;;;;16.13;13.00;;;14.30;74.40;;;;;;4177417;28;20644;-77
2022/12/18 00:38:56;;;;;;;15.87;13.40;;;14.30;74.40;;;;;;4167890;28;20216;-77
2022/12/18 00:40:58;;;;;;;16.10;13.33;;;14.30;74.10;;;;;;4173190;28;20338;-77
2022/12/18 00:42:59;;;;;;;14.73;13.10;;;14.30;75.20;;;;;;4173405;28;20216;-77
2022/12/18 00:45:02;;;;;;;16.87;13.37;;;14.30;74.00;;;;;;4173965;28;20215;-77
2022/12/18 00:47:04;;;;;;;17.90;14.23;;;14.30;74.00;;;;;;4172318;28;20255;-77
2022/12/18 00:49:06;;;;;;;18.37;13.13;;;14.30;74.10;;;;;;4177543;28;20224;-77
2022/12/18 00:51:09;;;;;;;16.23;13.07;;;14.30;74.40;;;;;;4174996;28;20220;-77
2022/12/18 00:53:13;;;;;;;15.80;13.27;;;14.20;74.70;;;;;;4167217;28;20731;-77
2022/12/18 00:55:16;;;;;;;15.70;13.17;;;14.30;74.50;;;;;;4178216;28;20211;-77
2022/12/18 00:57:18;;;;;;;14.47;12.30;;;14.30;74.00;;;;;;4179352;28;20212;-77
2022/12/18 00:59:20;;;;;;;15.93;13.07;;;14.30;74.30;;;;;;4172770;28;20259;-77
2022/12/18 01:01:23;;;;;;;16.37;13.73;;;14.30;74.20;;;;;;4175155;28;20235;-77
2022/12/18 01:03:25;;;;;;;16.10;12.83;;;14.20;73.90;;;;;;4178823;28;20227;-77
2022/12/18 01:05:28;;;;;;;15.37;12.90;;;14.20;73.90;;;;;;4172626;28;20268;-77
2022/12/18 01:07:31;;;;;;;15.67;13.40;;;14.20;74.40;;;;;;4179074;28;20653;-76
2022/12/18 01:09:34;;;;;;;15.50;12.83;;;14.20;74.00;;;;;;4169415;28;20224;-77
2022/12/18 01:11:37;;;;;;;16.80;13.47;;;14.20;73.90;;;;;;4176684;28;20211;-77
2022/12/18 01:13:39;;;;;;;14.87;12.80;;;14.20;74.00;;;;;;4178868;28;20208;-77
2022/12/18 01:15:49;;;;;;;15.43;12.77;;;14.20;73.80;;;;;;4178833;28;20228;-77
2022/12/18 01:17:56;;;;;;;15.53;12.93;;;14.20;73.80;;;;;;4172876;28;20207;-77
2022/12/18 01:19:58;;;;;;;13.23;11.83;;;14.20;73.90;;;;;;4178500;28;20261;-76
2022/12/18 01:22:01;;;;;;;14.57;12.77;;;14.20;73.50;;;;;;4175069;28;20242;-77
2022/12/18 01:24:03;;;;;;;15.73;12.93;;;14.20;73.60;;;;;;4175667;28;20220;-76
2022/12/18 01:26:09;;;;;;;14.40;12.80;;;14.20;73.80;;;;;;4177881;28;20273;-76
2022/12/18 01:28:11;;;;;;;15.70;12.87;;;14.10;73.80;;;;;;4173726;28;20212;-77
2022/12/18 01:30:14;;;;;;;16.43;12.90;;;14.20;73.40;;;;;;4172007;28;20262;-77
2022/12/18 01:32:16;;;;;;;16.20;12.83;;;14.20;73.50;;;;;;4179033;28;20216;-76
2022/12/18 01:34:18;;;;;;;15.43;12.93;;;14.10;74.10;;;;;;4175734;28;20281;-76
2022/12/18 01:36:22;;;;;;;15.07;12.40;;;14.20;73.40;;;;;;4178683;28;20215;-77
2022/12/18 01:38:25;;;;;;;14.53;12.73;;;14.20;73.80;;;;;;4178609;28;20285;-77
2022/12/18 01:40:27;;;;;;;16.67;13.43;;;14.20;73.60;;;;;;4169319;28;20223;-77
2022/12/18 01:42:31;;;;;;;14.33;12.30;;;14.10;73.40;;;;;;4178601;28;20281;-77
2022/12/18 01:44:56;;;;;;;15.00;12.47;;;14.20;73.60;;;;;;4178943;28;20868;-76
2022/12/18 01:46:59;;;;;;;15.23;12.93;;;14.10;74.00;;;;;;4172672;28;20269;-77
2022/12/18 01:49:03;;;;;;;13.53;11.90;;;14.10;73.90;;;;;;4178396;28;20297;-77
2022/12/18 01:51:06;;;;;;;16.13;13.37;;;14.10;73.70;;;;;;4176780;28;20216;-77
2022/12/18 01:53:14;;;;;;;15.17;12.57;;;14.10;73.60;;;;;;4177511;28;20256;-77
2022/12/18 01:55:20;;;;;;;14.70;12.17;;;14.10;73.90;;;;;;4178374;28;20215;-77
2022/12/18 01:57:24;;;;;;;16.23;13.10;;;14.10;73.20;;;;;;4171451;28;20649;-77
2022/12/18 01:59:28;;;;;;;14.83;13.03;;;14.10;73.80;;;;;;4181784;28;20216;-77
2022/12/18 02:01:32;;;;;;;15.17;12.63;;;14.10;73.80;;;;;;4181571;28;20239;-77
2022/12/18 02:03:35;;;;;;;14.30;12.43;;;14.10;73.70;;;;;;4170460;28;20211;-77
2022/12/18 02:05:46;;;;;;;15.27;13.00;;;14.10;73.20;;;;;;4181823;28;20273;-77
2022/12/18 02:08:02;;;;;;;16.03;12.80;;;14.10;73.60;;;;;;4181607;28;20219;-76
2022/12/18 02:10:11;;;;;;;14.30;12.40;;;14.10;73.50;;;;;;4171978;28;20216;-77
2022/12/18 02:12:20;;;;;;;15.03;12.40;;;14.20;73.00;;;;;;4170918;28;20281;-77
2022/12/18 02:14:31;;;;;;;15.33;11.80;;;14.10;73.40;;;;;;4176295;28;20224;-77
2022/12/18 02:16:40;;;;;;;15.97;12.70;;;14.10;73.50;;;;;;4179459;28;20741;-77
2022/12/18 02:18:47;;;;;;;14.33;12.10;;;14.10;73.10;;;;;;4181407;28;20265;-77
2022/12/18 02:20:55;;;;;;;15.03;12.07;;;14.10;73.30;;;;;;4175128;28;20656;-77
2022/12/18 02:23:07;;;;;;;14.40;11.73;;;14.00;73.20;;;;;;4180095;28;20269;-77
2022/12/18 02:25:26;;;;;;;13.73;11.80;;;14.10;73.40;;;;;;4180698;28;20211;-77
2022/12/18 02:27:32;;;;;;;13.17;11.77;;;14.00;73.30;;;;;;4171364;28;20285;-77
2022/12/18 02:29:40;;;;;;;14.40;12.40;;;14.10;72.80;;;;;;4180262;28;20617;-77
2022/12/18 02:31:46;;;;;;;16.00;12.63;;;14.00;73.00;;;;;;4181634;28;20219;-77
2022/12/18 02:33:50;;;;;;;13.47;11.50;;;14.00;72.90;;;;;;4175651;28;20228;-77
2022/12/18 02:35:54;;;;;;;14.27;11.40;;;14.00;72.70;;;;;;4180901;28;20730;-76
2022/12/18 02:37:57;;;;;;;14.00;11.77;;;14.00;73.00;;;;;;4180719;28;20220;-77
2022/12/18 02:40:01;;;;;;;13.87;11.50;;;14.00;73.10;;;;;;4175493;28;20277;-77
2022/12/18 02:42:07;;;;;;;14.47;11.90;;;14.00;72.90;;;;;;4169586;28;20290;-77
2022/12/18 02:44:13;;;;;;;13.33;11.80;;;14.00;72.70;;;;;;4180580;28;20664;-77
2022/12/18 02:46:27;;;;;;;13.43;11.37;;;14.00;73.20;;;;;;4173889;28;20212;-76
2022/12/18 02:48:32;;;;;;;14.00;11.93;;;14.00;73.90;;;;;;4180762;28;20282;-77
2022/12/18 02:50:40;;;;;;;13.93;12.33;;;14.10;72.70;;;;;;4174920;28;20269;-77
2022/12/18 02:52:51;;;;;;;14.53;11.87;;;14.00;73.20;;;;;;4180443;28;20227;-77
2022/12/18 02:55:01;;;;;;;14.40;11.87;;;14.00;73.10;;;;;;4181301;28;20219;-77
2022/12/18 02:57:13;;;;;;;13.37;11.80;;;14.00;72.90;;;;;;4174726;28;20725;-77
2022/12/18 02:59:25;;;;;;;12.93;10.87;;;14.00;73.20;;;;;;4173362;28;20258;-77
2022/12/18 03:01:35;;;;;;;15.77;12.60;;;14.00;72.80;;;;;;4181059;28;20239;-77
2022/12/18 03:03:42;;;;;;;15.13;11.53;;;14.00;73.20;;;;;;4174912;28;20215;-77
2022/12/18 03:05:53;;;;;;;14.97;12.77;;;14.00;73.30;;;;;;4181219;28;20246;-77
2022/12/18 03:07:59;;;;;;;13.60;11.90;;;13.90;73.20;;;;;;4176040;28;20278;-77
2022/12/18 03:10:02;;;;;;;13.73;11.80;;;13.90;73.10;;;;;;4178890;28;20216;-77
2022/12/18 03:12:24;;;;;;;15.07;11.93;;;13.90;72.80;;;;;;4171648;28;20235;-77
2022/12/18 03:14:31;;;;;;;15.57;11.60;;;14.00;72.20;;;;;;4173359;28;20270;-77
2022/12/18 03:16:36;;;;;;;14.60;11.97;;;13.90;72.90;;;;;;4179664;28;20269;-77
2022/12/18 03:18:43;;;;;;;12.87;10.70;;;13.90;72.80;;;;;;4180775;28;20212;-77
2022/12/18 03:20:48;;;;;;;15.33;11.77;;;13.90;72.80;;;;;;4175346;28;20220;-77
2022/12/18 03:22:55;;;;;;;12.80;11.30;;;13.90;72.50;;;;;;4175478;28;20236;-77
2022/12/18 03:24:59;;;;;;;12.90;10.97;;;13.90;72.20;;;;;;4175652;28;20211;-77
2022/12/18 03:27:05;;;;;;;15.17;11.37;;;13.90;72.40;;;;;;4180313;28;20216;-76
2022/12/18 03:29:13;;;;;;;13.23;11.00;;;13.90;72.50;;;;;;4180452;28;20211;-77
2022/12/18 03:31:18;;;;;;;13.37;11.30;;;13.90;72.50;;;;;;4175508;28;20215;-77
2022/12/18 03:33:27;;;;;;;12.50;10.87;;;14.00;72.40;;;;;;4180655;28;20223;-77
2022/12/18 03:35:31;;;;;;;14.67;11.23;;;13.90;72.70;;;;;;4180724;28;20227;-77
2022/12/18 03:37:34;;;;;;;13.27;11.03;;;13.90;72.00;;;;;;4173702;28;20217;-77
2022/12/18 03:39:37;;;;;;;12.17;10.80;;;13.90;72.70;;;;;;4180264;28;20266;-77
2022/12/18 03:41:45;;;;;;;15.30;12.03;;;13.90;72.30;;;;;;4180453;28;20684;-77
2022/12/18 03:43:53;;;;;;;15.00;11.27;;;13.90;72.40;;;;;;4173126;28;20702;-77
2022/12/18 03:46:03;;;;;;;11.70;10.40;;;13.90;72.80;;;;;;4179854;28;20220;-76
2022/12/18 03:48:12;;;;;;;13.17;11.07;;;13.90;72.30;;;;;;4180633;28;20224;-77
2022/12/18 03:50:20;;;;;;;12.70;11.20;;;13.90;72.70;;;;;;4174561;28;20265;-77
2022/12/18 03:52:29;;;;;;;11.70;10.50;;;13.90;72.70;;;;;;4179040;28;20219;-76
2022/12/18 03:54:32;;;;;;;14.67;11.37;;;13.90;72.20;;;;;;4174320;28;20262;-77
2022/12/18 03:56:40;;;;;;;13.50;11.43;;;13.90;72.10;;;;;;4179700;28;20641;-77
2022/12/18 03:58:44;;;;;;;12.87;10.67;;;13.80;72.50;;;;;;4179736;28;20220;-77
2022/12/18 04:00:48;;;;;;;14.80;11.73;;;13.80;72.40;;;;;;4176185;28;20628;-77
2022/12/18 04:02:54;;;;;;;13.07;10.47;;;13.80;72.40;;;;;;4179738;28;20300;-77
2022/12/18 04:05:01;;;;;;;13.57;11.00;;;13.80;72.10;;;;;;4176221;28;20258;-77
2022/12/18 04:07:05;;;;;;;12.67;10.70;;;13.80;72.20;;;;;;4174303;28;20325;-77
2022/12/18 04:09:08;;;;;;;12.13;10.47;;;13.80;72.30;;;;;;4180021;28;20262;-77
2022/12/18 04:11:10;;;;;;;13.43;10.83;;;13.80;72.20;;;;;;4168431;28;20669;-76
2022/12/18 04:13:12;;;;;;;12.77;11.00;;;13.80;72.10;;;;;;4177020;28;20237;-77
2022/12/18 04:15:15;;;;;;;12.00;10.60;;;13.80;72.40;;;;;;4169671;28;20274;-77
2022/12/18 04:17:18;;;;;;;12.37;10.20;;;13.80;71.60;;;;;;4175019;28;20635;-77
2022/12/18 04:19:20;;;;;;;12.10;10.10;;;13.80;72.20;;;;;;4176244;28;20219;-77
2022/12/18 04:21:24;;;;;;;13.10;10.40;;;13.80;72.50;;;;;;4179659;28;20220;-77
2022/12/18 04:23:26;;;;;;;12.57;10.10;;;13.80;72.20;;;;;;4172779;28;20240;-77
2022/12/18 04:25:28;;;;;;;11.93;9.90;;;13.80;72.40;;;;;;4178330;28;20212;-77
2022/12/18 04:27:31;;;;;;;11.13;9.93;;;13.80;72.20;;;;;;4175095;28;20265;-77
2022/12/18 04:29:33;;;;;;;12.00;10.70;;;13.80;71.80;;;;;;4170010;28;20216;-77
2022/12/18 04:31:36;;;;;;;14.07;11.10;;;13.80;72.40;;;;;;4179573;28;20220;-77
2022/12/18 04:33:38;;;;;;;13.23;10.53;;;13.80;72.00;;;;;;4179265;28;20227;-77
2022/12/18 04:35:41;;;;;;;11.37;10.17;;;13.70;72.20;;;;;;4171037;28;20216;-77
2022/12/18 04:37:45;;;;;;;12.20;10.17;;;13.70;72.30;;;;;;4176521;28;20277;-77
2022/12/18 04:39:47;;;;;;;12.30;9.93;;;13.80;71.50;;;;;;4170771;28;20216;-77
2022/12/18 04:41:49;;;;;;;12.13;10.37;;;13.70;71.80;;;;;;4170703;28;20216;-77
2022/12/18 04:43:52;;;;;;;13.40;10.50;;;13.70;72.00;;;;;;4176616;28;20277;-77
2022/12/18 04:45:54;;;;;;;12.20;10.30;;;13.70;71.70;;;;;;4179097;28;20273;-77
2022/12/18 04:47:58;;;;;;;11.40;10.03;;;13.70;72.10;;;;;;4174519;28;20360;-77
2022/12/18 04:50:00;;;;;;;11.70;10.47;;;13.70;72.10;;;;;;4179523;28;20216;-77
2022/12/18 04:52:03;;;;;;;12.60;10.70;;;13.70;72.10;;;;;;4178963;28;20261;-77
2022/12/18 04:54:06;;;;;;;11.63;10.43;;;13.70;72.00;;;;;;4172918;28;20208;-77
2022/12/18 04:56:11;;;;;;;11.03;9.60;;;13.70;71.80;;;;;;4178790;28;20212;-77
2022/12/18 04:58:13;;;;;;;11.83;10.13;;;13.70;71.60;;;;;;4179320;28;20215;-77
2022/12/18 05:00:16;;;;;;;11.63;10.07;;;13.80;71.20;;;;;;4171850;28;20602;-77
2022/12/18 05:02:19;;;;;;;12.63;10.30;;;13.80;71.40;;;;;;4178985;28;20317;-77
2022/12/18 05:04:21;;;;;;;11.77;9.93;;;13.70;71.30;;;;;;4179384;28;20216;-77
2022/12/18 05:06:23;;;;;;;12.53;10.17;;;13.80;71.40;;;;;;4172246;28;20219;-77
2022/12/18 05:08:26;;;;;;;11.33;9.40;;;13.70;71.50;;;;;;4179032;28;20273;-77
2022/12/18 05:10:29;;;;;;;10.20;9.10;;;13.70;71.70;;;;;;4172020;28;20216;-77
2022/12/18 05:12:32;;;;;;;11.97;10.20;;;13.70;71.30;;;;;;4177828;28;20208;-77
2022/12/18 05:14:34;;;;;;;10.73;9.33;;;13.70;71.70;;;;;;4178684;28;20265;-77
2022/12/18 05:16:37;;;;;;;11.43;9.80;;;13.70;71.40;;;;;;4175022;28;20219;-77
2022/12/18 05:18:39;;;;;;;10.13;9.07;;;13.70;71.30;;;;;;4179128;28;20211;-77
2022/12/18 05:20:41;;;;;;;10.43;9.30;;;13.70;71.60;;;;;;4178672;28;20637;-77
2022/12/18 05:22:44;;;;;;;10.97;9.37;;;13.70;71.40;;;;;;4172162;28;20244;-77
2022/12/18 05:24:46;;;;;;;13.07;10.27;;;13.70;71.30;;;;;;4177273;28;20747;-77
2022/12/18 05:26:51;;;;;;;11.17;9.87;;;13.70;71.80;;;;;;4179214;28;20215;-77
2022/12/18 05:28:53;;;;;;;11.20;9.70;;;13.70;71.50;;;;;;4170759;28;20263;-77
2022/12/18 05:30:58;;;;;;;11.03;9.20;;;13.70;71.40;;;;;;4176179;28;20223;-77
2022/12/18 05:33:00;;;;;;;11.20;9.43;;;13.70;71.60;;;;;;4178478;28;20679;-77
2022/12/18 05:35:03;;;;;;;11.83;10.03;;;13.70;71.40;;;;;;4178550;28;20261;-77
2022/12/18 05:37:05;;;;;;;12.43;10.17;;;13.70;71.70;;;;;;4166631;28;20532;-78
2022/12/18 05:39:08;;;;;;;10.67;8.97;;;13.70;72.10;;;;;;4177513;28;20255;-77
2022/12/18 05:41:10;;;;;;;10.67;9.10;;;13.70;71.30;;;;;;4167637;28;20274;-77
2022/12/18 05:43:14;;;;;;;10.33;9.23;;;13.70;71.90;;;;;;4172885;28;20244;-77
2022/12/18 05:45:16;;;;;;;11.17;9.53;;;13.60;71.30;;;;;;4179093;28;20459;-77
2022/12/18 05:47:19;;;;;;;10.97;9.23;;;13.60;71.10;;;;;;4178551;28;20277;-77
2022/12/18 05:49:21;;;;;;;10.13;8.83;;;13.70;71.40;;;;;;4174828;28;20261;-77
2022/12/18 05:51:24;;;;;;;10.50;9.30;;;13.70;71.30;;;;;;4168515;28;20216;-76
2022/12/18 05:53:26;;;;;;;9.83;8.53;;;13.60;71.30;;;;;;4169722;28;20652;-76
2022/12/18 05:55:28;;;;;;;12.30;9.57;;;13.70;71.70;;;;;;4174379;28;20619;-77
2022/12/18 05:57:31;;;;;;;11.63;8.97;;;13.60;72.20;;;;;;4174713;28;20228;-77
2022/12/18 05:59:35;;;;;;;10.63;9.00;;;13.60;71.60;;;;;;4170440;28;20212;-78
2022/12/18 06:01:37;;;;;;;10.53;9.30;;;13.60;71.30;;;;;;4178369;28;20652;-77
2022/12/18 06:03:39;;;;;;;10.13;8.70;;;13.60;71.20;;;;;;4178539;28;20293;-77
2022/12/18 06:05:43;;;;;;;11.10;8.17;;;13.60;71.30;;;;;;4172144;28;20252;-77
2022/12/18 06:07:45;;;;;;;11.10;8.60;;;13.60;71.30;;;;;;4178748;28;20219;-77
2022/12/18 06:09:48;;;;;;;9.20;8.23;;;13.60;71.20;;;;;;4178456;28;20220;-77
2022/12/18 06:11:52;;;;;;;10.70;9.27;;;13.60;70.60;;;;;;4166571;28;20242;-78
2022/12/18 06:13:56;;;;;;;10.07;8.90;;;13.60;70.60;;;;;;4178820;28;20216;-77
2022/12/18 06:16:03;;;;;;;10.17;9.07;;;13.60;70.80;;;;;;4178374;28;20270;-77
2022/12/18 06:18:05;;;;;;;11.40;8.90;;;13.60;71.30;;;;;;4171239;28;20216;-77
2022/12/18 06:20:09;;;;;;;9.80;8.60;;;13.60;70.90;;;;;;4178415;28;20219;-77
2022/12/18 06:22:11;;;;;;;10.67;8.53;;;13.60;71.10;;;;;;4175154;28;20563;-77
2022/12/18 06:24:13;;;;;;;9.80;8.80;;;13.60;71.20;;;;;;4175205;28;20243;-77
2022/12/18 06:26:15;;;;;;;10.30;8.57;;;13.60;70.80;;;;;;4172480;28;20233;-77
2022/12/18 06:28:18;;;;;;;9.83;8.30;;;13.60;70.90;;;;;;4171858;28;20246;-77
2022/12/18 06:30:21;;;;;;;9.07;7.80;;;13.50;71.00;;;;;;4173959;28;20599;-77
2022/12/18 06:32:24;;;;;;;9.70;8.43;;;13.60;70.80;;;;;;4178285;28;20660;-77
2022/12/18 06:34:27;;;;;;;11.83;8.80;;;13.50;70.90;;;;;;4175251;28;20216;-77
2022/12/18 06:36:30;;;;;;;9.53;8.53;;;13.60;71.30;;;;;;4169995;28;20208;-77
2022/12/18 06:38:33;;;;;;;10.50;8.63;;;13.60;70.90;;;;;;4178288;28;20212;-77
2022/12/18 06:40:38;;;;;;;9.80;8.20;;;13.50;71.40;;;;;;4170317;28;20262;-77
2022/12/18 06:42:41;;;;;;;10.20;9.07;;;13.50;71.20;;;;;;4180701;28;20270;-77
2022/12/18 06:44:43;;;;;;;10.07;8.30;;;13.60;70.70;;;;;;4181617;28;20774;-77
2022/12/18 06:46:45;;;;;;;9.60;8.53;;;13.50;70.70;;;;;;4174143;28;20224;-77
2022/12/18 06:48:50;;;;;;;8.87;7.60;;;13.50;71.00;;;;;;4179412;28;20261;-78
2022/12/18 06:50:53;;;;;;;10.07;8.50;;;13.50;70.20;;;;;;4180955;28;20262;-77
2022/12/18 06:52:55;;;;;;;9.67;8.53;;;13.60;70.60;;;;;;4173212;28;20278;-77
2022/12/18 06:54:57;;;;;;;8.80;7.53;;;13.50;70.70;;;;;;4179264;28;20216;-77
2022/12/18 06:57:00;;;;;;;10.00;7.93;;;13.50;70.40;;;;;;4180849;28;20216;-77
2022/12/18 06:59:02;;;;;;;9.13;7.97;;;13.60;70.60;;;;;;4176519;28;20216;-77
2022/12/18 07:01:06;;;;;;;9.43;8.33;;;13.50;70.70;;;;;;4174088;28;20652;-77
2022/12/18 07:03:08;;;;;;;10.17;7.90;;;13.50;70.80;;;;;;4180634;28;20212;-78
2022/12/18 07:05:12;;;;;;;9.57;8.33;;;13.50;70.40;;;;;;4175816;28;20211;-77
2022/12/18 07:07:15;;;;;;;8.93;7.87;;;13.50;70.40;;;;;;4179053;28;20250;-77
2022/12/18 07:09:17;;;;;;;9.53;7.87;;;13.50;70.70;;;;;;4179137;28;20223;-77
2022/12/18 07:11:20;;;;;;;9.00;8.10;;;13.50;70.70;;;;;;4173268;28;20215;-77
2022/12/18 07:13:22;;;;;;;9.00;7.87;;;13.50;70.60;;;;;;4173651;28;20212;-77
2022/12/18 07:15:24;;;;;;;9.23;7.90;;;13.50;70.20;;;;;;4180645;28;20216;-77
2022/12/18 07:17:27;;;;;;;8.80;7.83;;;13.50;70.50;;;;;;4174871;28;20215;-77
2022/12/18 07:19:30;;;;;;;9.30;7.77;;;13.50;71.40;;;;;;4179468;28;20216;-77
2022/12/18 07:21:34;;;;;;;9.83;8.37;;;13.50;70.60;;;;;;4178823;28;20216;-77
2022/12/18 07:23:37;;;;;;;10.33;8.13;;;13.50;70.40;;;;;;4179040;28;20687;-77
2022/12/18 07:25:39;;;;;;;9.23;7.83;;;13.50;70.50;;;;;;4174884;28;20633;-77
2022/12/18 07:27:42;;;;;;;10.03;8.00;;;13.50;69.60;;;;;;4173644;28;20225;-77
2022/12/18 07:29:44;;;;;;;10.00;7.83;;;13.60;69.00;;;;;;4178537;28;20246;-77
2022/12/18 07:31:46;;;;;;;9.60;7.53;;;13.60;68.50;;;;;;4180852;28;20223;-77
2022/12/18 07:33:50;;;;;;;9.40;8.17;;;13.50;68.30;;;;;;4175267;28;21490;-77
2022/12/18 07:35:53;;;;;;;9.70;7.77;;;13.50;68.30;;;;;;4180041;28;20203;-77
2022/12/18 07:37:57;;;;;;;11.07;8.63;;;13.60;68.40;;;;;;4180302;28;20223;-78
2022/12/18 07:39:59;;;;;;;9.97;7.83;;;13.60;69.30;;;;;;4177620;28;20212;-77
2022/12/18 07:44:21;;;;;;;8.30;7.23;;;13.60;69.40;;;;;;4176026;28;20233;-78
2022/12/18 07:46:24;;;;;;;8.10;7.20;;;13.60;69.20;;;;;;4173301;28;20223;-77
2022/12/18 07:48:26;;;;;;;10.30;7.70;;;13.70;69.40;;;;;;4180148;28;20741;-78
2022/12/18 07:50:29;;;;;;;9.93;7.80;;;13.70;69.00;;;;;;4178313;28;20554;-77
2022/12/18 07:52:31;;;;;;;8.80;7.47;;;13.70;69.10;;;;;;4178813;28;20211;-77
2022/12/18 07:54:35;;;;;;;9.60;7.27;;;13.80;69.20;;;;;;4180188;28;20216;-77
2022/12/18 07:56:37;;;;;;;9.33;7.60;;;13.80;69.10;;;;;;4174280;28;20212;-78
2022/12/18 07:58:39;;;;;;;9.57;7.27;;;13.80;69.00;;;;;;4179576;28;20219;-78
2022/12/18 08:00:42;;;;;;;7.87;7.07;;;13.80;68.60;;;;;;4180056;28;20212;-77
2022/12/18 08:02:44;;;;;;;9.13;7.03;;;13.80;69.20;;;;;;4173489;28;20681;-77
2022/12/18 08:04:46;;;;;;;8.23;6.97;;;13.80;69.30;;;;;;4180369;28;20286;-78
2022/12/18 08:06:49;;;;;;;7.67;6.87;;;13.80;69.20;;;;;;4179118;28;20220;-77
2022/12/18 08:08:52;;;;;;;9.80;7.67;;;13.80;69.50;;;;;;4174298;28;21001;-77
2022/12/18 08:10:56;;;;;;;8.00;6.63;;;13.80;69.90;;;;;;4170833;28;20220;-77
2022/12/18 08:12:59;;;;;;;7.83;7.03;;;13.80;69.70;;;;;;4177249;28;20216;-78
2022/12/18 08:15:01;;;;;;;9.57;7.53;;;13.80;70.20;;;;;;4172621;28;20216;-77
2022/12/18 08:17:03;;;;;;;7.60;6.70;;;13.80;69.90;;;;;;4179943;28;20216;-77
2022/12/18 08:19:06;;;;;;;8.10;7.00;;;13.80;70.00;;;;;;4178998;28;20718;-78
2022/12/18 08:21:10;;;;;;;8.67;6.63;;;13.80;69.60;;;;;;4176261;28;20216;-78
2022/12/18 08:23:12;;;;;;;7.60;6.60;;;13.80;70.10;;;;;;4167747;28;20273;-77
2022/12/18 08:25:14;;;;;;;8.43;6.97;;;13.80;70.00;;;;;;4171123;28;20302;-77
2022/12/18 08:27:18;;;;;;;7.70;6.77;;;13.80;69.90;;;;;;4179410;28;20224;-77
2022/12/18 08:29:21;;;;;;;8.37;7.10;;;13.70;69.60;;;;;;4179626;28;20738;-78
2022/12/18 08:31:23;;;;;;;7.43;6.63;;;13.80;69.80;;;;;;4174389;28;20261;-77
2022/12/18 08:33:27;;;;;;;7.50;6.70;;;13.70;69.30;;;;;;4176009;28;20296;-77
2022/12/18 08:35:29;;;;;;;8.83;6.67;;;13.80;69.70;;;;;;4180141;28;20258;-77
2022/12/18 08:37:31;;;;;;;7.77;6.67;;;13.70;69.70;;;;;;4174549;28;20212;-77
2022/12/18 08:39:34;;;;;;;8.40;6.60;;;13.70;69.50;;;;;;4178148;28;20269;-78
2022/12/18 08:41:36;;;;;;;8.07;6.63;;;13.70;69.40;;;;;;4179539;28;20277;-77
2022/12/18 08:46:00;;;;;;;8.03;6.87;;;13.80;69.70;;;;;;4179099;28;20224;-77
2022/12/18 08:48:02;;;;;;;8.83;6.50;;;13.80;70.30;;;;;;4179840;28;20212;-77
2022/12/18 08:50:05;;;;;;;7.23;6.40;;;13.80;69.10;;;;;;4173564;28;20714;-77
2022/12/18 08:52:08;;;;;;;8.10;7.20;;;13.80;69.40;;;;;;4176777;28;20257;-78
2022/12/18 08:54:13;;;;;;;8.13;6.67;;;13.80;69.00;;;;;;4176426;28;20269;-78
2022/12/18 08:56:16;;;;;;;7.83;6.40;;;13.80;68.60;;;;;;4176892;28;20208;-77
2022/12/18 08:58:19;;;;;;;7.50;6.67;;;13.80;68.60;;;;;;4179288;28;20277;-77
2022/12/18 09:00:23;;;;;;;8.90;7.10;;;13.80;69.50;;;;;;4179310;28;20315;-77
2022/12/18 09:02:25;;;;;;;7.20;6.20;;;13.80;69.40;;;;;;4172053;28;20223;-77
2022/12/18 09:04:27;;;;;;;8.10;6.43;;;13.80;69.10;;;;;;4178684;28;20216;-76
2022/12/18 09:06:30;;;;;;;7.20;6.37;;;13.80;68.70;;;;;;4177706;28;20216;-77
2022/12/18 09:08:32;;;;;;;7.63;6.53;;;13.80;68.60;;;;;;4176549;28;20265;-77
2022/12/18 09:10:35;;;;;;;8.07;6.00;;;13.80;68.60;;;;;;4172815;28;20217;-77
2022/12/18 09:12:37;;;;;;;7.40;6.17;;;13.80;69.20;;;;;;4169548;28;20331;-77
2022/12/18 09:14:39;;;;;;;7.70;6.57;;;13.80;68.60;;;;;;4177742;28;20879;-77
2022/12/18 09:16:43;;;;;;;8.63;6.80;;;13.80;69.20;;;;;;4167156;28;20257;-77
2022/12/18 09:18:46;;;;;;;6.93;6.23;;;13.80;69.10;;;;;;4175515;28;20261;-77
2022/12/18 09:20:50;;;;;;;6.53;5.60;;;13.80;69.00;;;;;;4178771;28;20662;-77
2022/12/18 09:22:52;;;;;;;8.27;6.80;;;13.80;69.70;;;;;;4178471;28;20634;-77
2022/12/18 09:24:54;;;;;;;6.33;5.77;;;13.80;68.90;;;;;;4171816;28;20652;-77
2022/12/18 09:26:57;;;;;;;8.53;6.33;;;13.80;68.90;;;;;;4174734;28;20220;-77
2022/12/18 09:28:59;;;;;;;7.80;6.70;;;13.80;70.00;;;;;;4174501;28;20223;-77
2022/12/18 09:31:07;;;;;;;6.87;5.70;;;13.80;69.40;;;;;;4169623;28;20246;-77
2022/12/18 09:33:11;;;;;;;6.47;5.77;;;13.80;69.20;;;;;;4178341;28;20300;-77
2022/12/18 09:35:13;;;;;;;7.43;6.27;;;13.80;69.60;;;;;;4178749;28;20212;-77
2022/12/18 09:37:16;;;;;;;8.40;6.20;;;13.80;69.70;;;;;;4173081;28;20212;-77
2022/12/18 09:39:18;;;;;;;7.57;5.97;;;13.90;69.50;;;;;;4178670;28;20641;-77
2022/12/18 09:41:40;;;;;;;7.07;6.10;;;13.90;69.30;;;;;;4171900;28;20211;-77
2022/12/18 09:43:47;;;;;;;6.03;5.40;;;13.80;69.70;;;;;;4178647;28;20223;-77
2022/12/18 09:45:52;;;;;;;7.77;5.67;;;13.80;69.90;;;;;;4178840;28;20765;-77
2022/12/18 09:47:56;;;;;;;6.87;6.03;;;13.80;70.20;;;;;;4176022;28;20246;-77
2022/12/18 09:50:03;;;;;;;6.70;5.53;;;13.80;70.30;;;;;;4178922;28;20223;-77
2022/12/18 09:52:10;;;;;;;7.47;6.17;;;13.80;70.10;;;;;;4170451;28;20215;-77
2022/12/18 09:54:17;;;;;;;7.27;5.90;;;13.80;71.00;;;;;;4171447;28;20277;-77
2022/12/18 09:56:22;;;;;;;8.13;6.10;;;13.70;68.50;;;;;;4173564;28;20212;-80
2022/12/18 09:58:31;;;;;;;6.07;5.47;;;13.50;68.30;;;;;;4172560;28;20211;-78
2022/12/18 10:00:33;;;;;;;6.67;5.93;;;13.60;69.50;;;;;;4171187;28;20682;-76
2022/12/18 10:02:36;;;;;;;7.70;6.20;;;13.60;69.50;;;;;;4178778;28;20270;-76
2022/12/18 10:04:38;;;;;;;7.50;5.73;;;13.60;69.70;;;;;;4168478;28;20215;-76
2022/12/18 10:06:47;;;;;;;7.83;5.87;;;13.70;70.00;;;;;;4175770;28;20745;-76
2022/12/18 10:08:55;;;;;;;10.57;6.27;;;13.70;70.30;;;;;;4178523;28;20257;-77
2022/12/18 10:11:02;;;;;;;9.63;6.37;;;13.70;70.20;;;;;;4172153;28;20680;-76
2022/12/18 10:13:15;;;;;;;7.60;5.50;;;13.80;70.10;;;;;;4178568;28;20314;-76
2022/12/18 10:15:24;;;;;;;6.77;5.83;;;13.80;69.50;;;;;;4168089;28;20211;-76
2022/12/18 10:17:35;;;;;;;6.80;5.87;;;13.80;69.50;;;;;;4171158;28;20216;-77
2022/12/18 10:19:48;;;;;;;6.70;4.87;;;13.80;69.20;;;;;;4181671;28;20212;-76
2022/12/18 10:22:03;;;;;;;6.43;5.83;;;13.80;70.20;;;;;;4179230;28;20273;-76
2022/12/18 10:24:17;;;;;;;6.40;5.60;;;13.80;69.90;;;;;;4176565;28;20609;-76
2022/12/18 10:26:19;;;;;;;6.27;4.83;;;13.90;70.10;;;;;;4175607;28;20293;-76
2022/12/18 10:28:24;;;;;;;6.33;5.73;;;13.80;69.80;;;;;;4175377;28;20228;-77
2022/12/18 10:30:28;;;;;;;7.30;5.70;;;13.80;70.40;;;;;;4180034;28;20220;-76
2022/12/18 10:32:31;;;;;;;7.97;5.70;;;13.90;70.20;;;;;;4181127;28;20692;-76
2022/12/18 10:34:33;;;;;;;7.03;5.57;;;13.90;70.10;;;;;;4173642;28;20630;-77
2022/12/18 10:36:36;;;;;;;6.17;5.13;;;13.90;71.00;;;;;;4177124;28;20212;-77
2022/12/18 10:38:40;;;;;;;6.13;5.53;;;13.90;69.80;;;;;;4181438;28;20629;-77
2022/12/18 10:40:51;;;;;;;6.80;5.63;;;13.90;70.20;;;;;;4172933;28;20215;-76
2022/12/18 10:43:05;;;;;;;5.60;5.00;;;13.90;70.30;;;;;;4180733;28;20281;-77